Lake Panamoka, New York
Current Conditions -  °F | °C
As of 12:56 AM on Tuesday 27 Jan 2015 (Local Time) from KHWV Reporting Station
Haze Haze  
Wind Chill: -11°   Ceiling: 900
Heat Index: -4°   Visibility: 0.75mi
Dew Point: -5°   Wind: 16mph
Humidity: 92%   Direction: 10°N
Pressure: 29.62"   Gusts: 29mph
Location:  40.8942°N, 72.8763°W
Report Text: KHWV 270556Z AUTO 01014G25KT 3/4SM BR VV009 M04/M05 A2962 RMK AO2 PK WND 35032/0522 SLP031 P0001 60009 T10391050 11022 21039 55025 PWINO FZRANO TSNO $
Loading
Personal Weather Stations






























Interactive Weather Map New forecast layout! Learn more

10-Day Weather Forecast

Advertisements
Track Severe Weather on mobile